Time;durP1;ratioP1;P1;durP2;ratioP2;P2;SDS_P1;SDS_P2;PMS_P1;PMS_P2;Temp;Humidity;BMP_temperature;BMP_pressure;BME280_temperature;BME280_humidity;BME280_pressure;Samples;Min_cycle;Max_cycle;Signal;HPM_P1;HPM_P2
2022/08/18 00:01:19;;;;;;;81.60;46.05;;;;;;;17.74;100.00;101131.25;6219415;23;20012;-87
2022/08/18 00:03:48;;;;;;;77.05;45.25;;;;;;;17.74;100.00;101134.00;6192696;23;20004;-87
2022/08/18 00:06:13;;;;;;;84.75;48.78;;;;;;;17.73;100.00;101135.06;6192791;23;20008;-87
2022/08/18 00:08:39;;;;;;;79.80;46.60;;;;;;;17.75;100.00;101141.16;6192670;23;20019;-87
2022/08/18 00:11:05;;;;;;;85.20;47.83;;;;;;;17.78;100.00;101148.88;6168618;23;20446;-87
2022/08/18 00:13:30;;;;;;;84.13;47.65;;;;;;;17.81;100.00;101151.91;6193113;23;20008;-87
2022/08/18 00:15:58;;;;;;;82.33;47.73;;;;;;;17.81;100.00;101148.34;6219384;23;20008;-87
2022/08/18 00:18:24;;;;;;;82.07;46.78;;;;;;;17.80;100.00;101149.44;6193020;23;20087;-87
2022/08/18 00:20:49;;;;;;;85.77;46.97;;;;;;;17.79;100.00;101139.53;6192973;23;20083;-87
2022/08/18 00:23:22;;;;;;;77.68;46.80;;;;;;;17.84;100.00;101150.56;6218898;23;20495;-86
2022/08/18 00:25:48;;;;;;;80.55;46.05;;;;;;;17.87;100.00;101153.63;6192492;23;20020;-87
2022/08/18 00:28:14;;;;;;;80.10;48.13;;;;;;;17.84;100.00;101154.13;6192751;23;20052;-87
2022/08/18 00:30:39;;;;;;;83.72;47.33;;;;;;;17.86;100.00;101154.72;6192650;23;20403;-87
2022/08/18 00:33:05;;;;;;;80.20;46.13;;;;;;;17.88;100.00;101163.53;6192375;23;20375;-87
2022/08/18 00:35:37;;;;;;;79.97;45.77;;;;;;;17.90;100.00;101165.22;6192677;23;20068;-87
2022/08/18 00:38:06;;;;;;;80.53;46.28;;;;;;;17.90;100.00;101166.03;6219096;23;20052;-87
2022/08/18 00:40:47;;;;;;;78.63;45.72;;;;;;;17.91;100.00;101161.38;6192211;23;20043;-86
2022/08/18 00:43:33;;;;;;;76.93;44.95;;;;;;;17.88;100.00;101169.00;6193092;23;20087;-87
2022/08/18 00:46:00;;;;;;;78.07;46.83;;;;;;;17.87;100.00;101177.50;6193091;23;20009;-87
2022/08/18 00:48:26;;;;;;;73.83;44.10;;;;;;;17.87;100.00;101177.50;6192600;23;20296;-86
2022/08/18 00:50:57;;;;;;;73.50;45.72;;;;;;;17.87;100.00;101174.75;6192721;23;20011;-87
2022/08/18 00:53:44;;;;;;;70.40;43.60;;;;;;;17.84;100.00;101169.78;6192327;23;20008;-86
2022/08/18 00:56:37;;;;;;;73.63;43.75;;;;;;;17.76;100.00;101162.00;6193479;23;20013;-86
2022/08/18 00:59:13;;;;;;;74.20;43.30;;;;;;;17.71;100.00;101163.59;6191406;23;20437;-86
2022/08/18 01:01:47;;;;;;;70.22;41.78;;;;;;;17.65;100.00;101158.31;6191206;23;20008;-87
2022/08/18 01:04:18;;;;;;;72.07;42.58;;;;;;;17.59;100.00;101162.88;6191271;23;20016;-86
2022/08/18 01:06:52;;;;;;;72.80;42.70;;;;;;;17.53;100.00;101172.97;6191330;23;20004;-86
2022/08/18 01:09:17;;;;;;;72.68;43.80;;;;;;;17.49;100.00;101165.50;6191419;23;20027;-86
2022/08/18 01:11:43;;;;;;;75.80;42.77;;;;;;;17.45;100.00;101165.19;6217589;23;20407;-87
2022/08/18 01:14:13;;;;;;;81.47;44.30;;;;;;;17.40;100.00;101161.53;6191080;23;20248;-87
2022/08/18 01:22:31;;;;;;;74.87;43.37;;;;;;;17.26;100.00;101150.94;6195437;23;20118;-85
2022/08/18 01:27:44;;;;;;;79.63;44.90;;;;;;;17.17;100.00;101152.47;6217571;23;20086;-87
2022/08/18 01:30:13;;;;;;;82.43;44.80;;;;;;;17.14;100.00;101153.78;6190293;23;20426;-87
2022/08/18 01:32:44;;;;;;;82.00;44.80;;;;;;;17.11;100.00;101161.69;6190662;23;20254;-87
2022/08/18 01:35:15;;;;;;;83.85;44.50;;;;;;;17.06;100.00;101150.66;6190080;23;20016;-87
2022/08/18 01:37:42;;;;;;;78.07;42.85;;;;;;;17.03;100.00;101151.97;6191045;23;20004;-87
2022/08/18 01:40:09;;;;;;;82.95;44.55;;;;;;;17.00;100.00;101147.81;6190050;23;20035;-87
2022/08/18 01:42:35;;;;;;;75.32;42.97;;;;;;;16.99;100.00;101157.16;6217167;23;20011;-87
2022/08/18 01:45:08;;;;;;;85.33;43.13;;;;;;;16.95;100.00;101146.94;6217275;23;20011;-87
2022/08/18 01:47:35;;;;;;;83.88;43.72;;;;;;;16.94;100.00;101146.09;6216841;23;20079;-87
2022/08/18 01:50:02;;;;;;;81.70;42.58;;;;;;;16.90;100.00;101150.41;6190419;23;20427;-86
2022/08/18 01:52:28;;;;;;;79.07;43.20;;;;;;;16.90;100.00;101157.81;6191265;23;20013;-87
2022/08/18 01:54:56;;;;;;;82.10;42.03;;;;;;;16.87;100.00;101150.91;6215231;23;20382;-87
2022/08/18 01:57:22;;;;;;;74.97;41.60;;;;;;;16.87;100.00;101144.56;6190772;23;20319;-87
2022/08/18 01:59:48;;;;;;;78.80;42.78;;;;;;;16.81;100.00;101144.47;6190658;23;20041;-87
2022/08/18 02:02:24;;;;;;;77.22;41.10;;;;;;;16.82;100.00;101145.31;6190646;23;20442;-87
2022/08/18 02:04:58;;;;;;;83.60;43.08;;;;;;;16.80;100.00;101148.31;6190428;23;20095;-87
2022/08/18 02:07:23;;;;;;;78.15;41.38;;;;;;;16.80;100.00;101139.25;6191309;23;20039;-86
2022/08/18 02:09:49;;;;;;;85.03;43.70;;;;;;;16.76;100.00;101138.13;6216026;23;20032;-87
2022/08/18 02:12:15;;;;;;;78.60;41.90;;;;;;;16.74;100.00;101137.50;6191081;23;20433;-87
2022/08/18 02:14:41;;;;;;;80.88;42.35;;;;;;;16.71;100.00;101132.53;6165716;23;20095;-87
2022/08/18 02:17:09;;;;;;;79.60;41.33;;;;;;;16.67;100.00;101144.00;6216971;23;20036;-86
2022/08/18 02:19:44;;;;;;;82.63;42.03;;;;;;;16.64;100.00;101149.97;6189898;23;20092;-86
2022/08/18 02:22:16;;;;;;;75.37;40.80;;;;;;;16.64;100.00;101143.69;6190190;23;20004;-86
2022/08/18 02:24:41;;;;;;;78.57;41.55;;;;;;;16.62;100.00;101143.94;6216558;23;20005;-87
2022/08/18 02:27:08;;;;;;;81.57;40.77;;;;;;;16.61;100.00;101157.88;6189869;23;20327;-85
2022/08/18 02:29:35;;;;;;;79.80;42.07;;;;;;;16.59;100.00;101151.78;6190274;23;20236;-86
2022/08/18 02:32:01;;;;;;;80.60;41.70;;;;;;;16.56;100.00;101150.38;6190105;23;20004;-86
2022/08/18 02:34:26;;;;;;;78.32;40.17;;;;;;;16.55;100.00;101143.25;6214663;23;20023;-86
2022/08/18 02:36:52;;;;;;;82.47;41.33;;;;;;;16.55;100.00;101153.34;6215622;23;20004;-86
2022/08/18 02:39:17;;;;;;;89.53;43.05;;;;;;;16.53;100.00;101161.81;6190320;23;20411;-86
2022/08/18 02:41:43;;;;;;;87.27;41.73;;;;;;;16.53;100.00;101163.75;6190100;23;20009;-87
2022/08/18 02:44:09;;;;;;;77.57;40.57;;;;;;;16.49;100.00;101166.16;6217372;23;20076;-87
2022/08/18 02:46:40;;;;;;;87.95;42.30;;;;;;;16.48;100.00;101172.72;6190208;23;20012;-86
2022/08/18 02:49:06;;;;;;;81.57;41.03;;;;;;;16.48;100.00;101170.78;6216694;23;20005;-87
2022/08/18 02:51:32;;;;;;;84.65;41.80;;;;;;;16.46;100.00;101172.09;6165500;23;20096;-87
2022/08/18 02:53:58;;;;;;;86.80;42.47;;;;;;;16.45;100.00;101174.03;6190059;23;20036;-86
2022/08/18 02:56:28;;;;;;;87.63;41.73;;;;;;;16.42;100.00;101169.03;6189547;23;20004;-86
2022/08/18 02:59:00;;;;;;;80.60;41.38;;;;;;;16.39;100.00;101166.81;6190696;23;20005;-86
2022/08/18 03:01:37;;;;;;;78.40;40.90;;;;;;;16.36;100.00;101153.59;6189708;23;20087;-87
2022/08/18 03:04:05;;;;;;;83.28;41.08;;;;;;;16.33;100.00;101156.84;6190183;23;20095;-87
2022/08/18 03:06:31;;;;;;;88.07;41.85;;;;;;;16.31;100.00;101153.50;6190230;23;20008;-86
2022/08/18 03:08:57;;;;;;;83.20;40.53;;;;;;;16.31;100.00;101164.44;6189915;23;20036;-86
2022/08/18 03:11:25;;;;;;;84.00;40.65;;;;;;;16.27;100.00;101158.66;6190147;23;20335;-86
2022/08/18 03:13:51;;;;;;;81.72;40.28;;;;;;;16.25;100.00;101162.69;6189294;23;20475;-86
2022/08/18 03:16:17;;;;;;;86.87;41.07;;;;;;;16.24;100.00;101159.16;6216140;23;20027;-86
2022/08/18 03:18:44;;;;;;;87.03;40.85;;;;;;;16.20;100.00;101159.88;6190103;23;20091;-86
2022/08/18 03:21:13;;;;;;;89.47;42.17;;;;;;;16.18;100.00;101168.34;6216029;23;20004;-86
2022/08/18 03:23:39;;;;;;;86.53;41.38;;;;;;;16.16;100.00;101170.47;6189972;23;20015;-86
2022/08/18 03:26:10;;;;;;;85.10;40.40;;;;;;;16.13;100.00;101177.25;6216372;23;20008;-86
2022/08/18 03:28:39;;;;;;;86.68;40.85;;;;;;;16.12;100.00;101175.63;6217092;23;20008;-86
2022/08/18 03:31:06;;;;;;;82.65;40.35;;;;;;;16.10;100.00;101179.69;6216224;23;20079;-86
2022/08/18 03:33:31;;;;;;;90.57;41.25;;;;;;;16.08;100.00;101179.09;6189088;23;20051;-86
2022/08/18 03:36:11;;;;;;;92.40;40.97;;;;;;;16.08;100.00;101179.91;6190701;23;20008;-86
2022/08/18 03:38:37;;;;;;;90.32;41.65;;;;;;;16.06;100.00;101179.34;6189596;23;20087;-86
2022/08/18 03:41:02;;;;;;;86.60;41.33;;;;;;;16.06;100.00;101182.09;6141239;23;20012;-86
2022/08/18 03:43:30;;;;;;;89.97;41.90;;;;;;;16.02;100.00;101183.63;6190313;23;20358;-86
2022/08/18 03:46:01;;;;;;;88.30;41.35;;;;;;;16.01;100.00;101187.44;6165310;23;20008;-86
2022/08/18 03:48:26;;;;;;;90.68;44.15;;;;;;;15.96;100.00;101179.16;6189146;23;20015;-86
2022/08/18 03:50:51;;;;;;;84.60;39.30;;;;;;;15.96;100.00;101177.22;6189292;23;20099;-85
2022/08/18 03:53:18;;;;;;;89.50;41.60;;;;;;;15.98;100.00;101179.72;6189571;23;20327;-86
2022/08/18 03:55:43;;;;;;;92.85;41.92;;;;;;;15.97;100.00;101191.72;6189138;23;20005;-86
2022/08/18 03:58:13;;;;;;;93.00;42.87;;;;;;;15.96;100.00;101187.34;6140787;23;20038;-86
2022/08/18 04:00:39;;;;;;;92.35;42.78;;;;;;;15.99;100.00;101183.28;6166648;23;20051;-87
2022/08/18 04:03:05;;;;;;;94.17;41.60;;;;;;;15.99;100.00;101178.66;6164775;23;20009;-86
2022/08/18 04:05:33;;;;;;;97.43;42.47;;;;;;;16.00;100.00;101180.28;6165091;23;20008;-86
2022/08/18 04:07:59;;;;;;;103.55;44.10;;;;;;;16.01;100.00;101184.69;6216120;23;20431;-86
2022/08/18 04:10:28;;;;;;;92.95;42.42;;;;;;;16.03;100.00;101176.25;6216171;23;20012;-87
2022/08/18 04:12:53;;;;;;;95.53;43.50;;;;;;;16.08;100.00;101173.63;6189537;23;20415;-87
2022/08/18 04:15:19;;;;;;;99.95;43.80;;;;;;;16.08;100.00;101174.44;6190273;23;20012;-86
2022/08/18 04:17:46;;;;;;;96.87;44.37;;;;;;;16.07;100.00;101164.56;6190167;23;20048;-87
2022/08/18 04:20:12;;;;;;;94.07;43.47;;;;;;;16.12;100.00;101172.03;6189254;23;20327;-86
2022/08/18 04:22:39;;;;;;;100.07;43.80;;;;;;;16.17;100.00;101174.06;6188978;23;20012;-86
2022/08/18 04:25:08;;;;;;;98.07;44.25;;;;;;;16.16;100.00;101183.34;6189380;23;20063;-87
2022/08/18 04:27:34;;;;;;;101.78;45.97;;;;;;;16.26;100.00;101183.53;6165649;23;20009;-87
2022/08/18 04:30:00;;;;;;;95.75;42.78;;;;;;;16.30;100.00;101176.50;6188991;23;20059;-86
2022/08/18 04:32:26;;;;;;;98.60;45.03;;;;;;;16.33;100.00;101173.28;6216498;23;20012;-87
2022/08/18 04:34:51;;;;;;;99.18;45.90;;;;;;;16.35;100.00;101173.03;6191075;23;20427;-86
2022/08/18 04:37:17;;;;;;;103.83;46.77;;;;;;;16.35;100.00;101179.31;6218243;23;20423;-85
2022/08/18 04:39:44;;;;;;;91.43;43.90;;;;;;;16.37;100.00;101187.28;6191467;23;20063;-86
2022/08/18 04:42:10;;;;;;;101.07;45.33;;;;;;;16.42;100.00;101184.66;6191056;23;20339;-86
2022/08/18 04:44:36;;;;;;;97.13;45.25;;;;;;;16.41;100.00;101182.97;6217480;23;20092;-86
2022/08/18 04:47:08;;;;;;;97.78;45.65;;;;;;;16.44;100.00;101185.22;6191159;23;20378;-86
2022/08/18 04:49:37;;;;;;;92.75;43.97;;;;;;;16.47;100.00;101188.28;6191370;23;20321;-86
2022/08/18 04:54:48;;;;;;;97.75;45.95;;;;;;;16.51;100.00;101196.03;6217365;23;20347;-86
2022/08/18 04:57:16;;;;;;;84.43;41.47;;;;;;;16.52;100.00;101198.53;6190814;23;20005;-86
2022/08/18 04:59:45;;;;;;;89.32;43.47;;;;;;;16.53;100.00;101204.84;6191402;23;20005;-86
2022/08/18 05:02:11;;;;;;;82.77;42.77;;;;;;;16.53;100.00;101197.44;6190487;23;20092;-86
2022/08/18 05:04:39;;;;;;;83.03;42.17;;;;;;;16.55;100.00;101197.19;6217626;23;20445;-87
2022/08/18 05:07:07;;;;;;;85.82;42.13;;;;;;;16.52;100.00;101194.94;6217313;23;20011;-88
2022/08/18 05:09:34;;;;;;;80.15;41.35;;;;;;;16.56;100.00;101196.94;6191932;23;20000;-93
2022/08/18 05:12:04;;;;;;;74.95;40.67;;;;;;;16.55;100.00;101203.50;6191335;23;20047;-92
2022/08/18 05:14:32;;;;;;;78.27;40.27;;;;;;;16.61;100.00;101209.91;6191531;23;20020;-92
2022/08/18 05:16:58;;;;;;;79.63;39.60;;;;;;;16.66;100.00;101207.25;6192103;23;20012;-92
2022/08/18 05:19:26;;;;;;;79.85;41.42;;;;;;;16.69;100.00;101216.91;6192715;23;20047;-91
2022/08/18 05:21:54;;;;;;;71.63;38.45;;;;;;;16.76;100.00;101214.81;6192131;23;20005;-93
2022/08/18 05:24:20;;;;;;;76.13;40.45;;;;;;;16.79;100.00;101217.88;6191920;23;20021;-91
2022/08/18 05:26:48;;;;;;;69.43;39.03;;;;;;;16.86;100.00;101211.41;6218012;23;20008;-93
2022/08/18 05:29:15;;;;;;;66.72;38.55;;;;;;;16.89;100.00;101210.94;6191171;23;20009;-92
2022/08/18 05:31:45;;;;;;;66.07;37.83;;;;;;;16.94;100.00;101202.81;6218567;23;20016;-92
2022/08/18 05:34:13;;;;;;;66.70;37.28;;;;;;;16.97;100.00;101205.06;6191590;23;20039;-91
2022/08/18 05:37:14;;;;;;;60.47;35.53;;;;;;;17.03;100.00;101205.97;6192050;23;20008;-93
2022/08/18 05:39:51;;;;;;;58.57;35.73;;;;;;;16.97;100.00;101205.06;6184685;23;20015;-95
2022/08/18 05:42:28;;;;;;;63.85;36.50;;;;;;;17.01;100.00;101212.53;6192250;23;20000;-95
2022/08/18 05:44:58;;;;;;;62.25;36.20;;;;;;;17.06;100.00;101216.44;6218511;23;20009;-94
2022/08/18 05:47:29;;;;;;;62.08;34.67;;;;;;;17.13;100.00;101220.66;6192138;23;20091;-95
2022/08/18 05:50:01;;;;;;;61.05;35.00;;;;;;;17.24;100.00;101218.91;6191232;23;20079;-92
2022/08/18 05:52:59;;;;;;;53.70;32.57;;;;;;;17.37;100.00;101225.94;6191092;23;20086;-92
2022/08/18 05:58:31;;;;;;;51.85;33.50;;;;;;;17.55;100.00;101224.84;6218380;23;20015;-93
2022/08/18 06:01:05;;;;;;;49.28;31.90;;;;;;;17.59;100.00;101234.22;6192447;23;20004;-95
2022/08/18 06:03:44;;;;;;;48.13;30.40;;;;;;;17.66;100.00;101225.81;6193038;23;20410;-95
2022/08/18 06:06:17;;;;;;;43.40;29.90;;;;;;;17.74;100.00;101236.34;6192446;23;20028;-95
2022/08/18 06:09:16;;;;;;;49.92;31.38;;;;;;;17.80;100.00;101232.56;6191374;23;20009;-95
2022/08/18 06:11:42;;;;;;;49.80;30.63;;;;;;;17.75;100.00;101224.28;6182710;23;20446;-95
2022/08/18 06:14:10;;;;;;;48.65;31.58;;;;;;;17.77;100.00;101229.53;6191848;23;20004;-95
2022/08/18 06:17:00;;;;;;;52.27;32.20;;;;;;;17.80;100.00;101218.84;6190747;23;20016;-94
2022/08/18 06:19:47;;;;;;;46.30;30.75;;;;;;;17.93;100.00;101234.16;6191975;23;20004;-93
2022/08/18 06:22:51;;;;;;;54.70;31.98;;;;;;;18.16;100.00;101229.47;6216275;23;20100;-94
2022/08/18 06:25:42;;;;;;;49.95;31.65;;;;;;;18.25;100.00;101225.19;6148816;23;20008;-95
2022/08/18 06:28:13;;;;;;;49.13;31.85;;;;;;;18.35;100.00;101233.56;6191003;23;20032;-95
2022/08/18 06:30:41;;;;;;;48.07;31.90;;;;;;;18.31;100.00;101246.13;6192265;23;20004;-96
2022/08/18 06:33:30;;;;;;;48.00;31.63;;;;;;;18.33;100.00;101237.63;6191068;23;20013;-95
2022/08/18 06:36:13;;;;;;;49.80;32.85;;;;;;;18.34;100.00;101240.13;6191479;23;20066;-95
2022/08/18 06:39:01;;;;;;;50.35;31.48;;;;;;;18.47;100.00;101246.28;6217775;23;20079;-94
2022/08/18 06:41:37;;;;;;;49.60;31.83;;;;;;;18.57;100.00;101249.13;6216494;23;20020;-94
2022/08/18 06:44:12;;;;;;;42.97;30.67;;;;;;;18.57;100.00;101250.00;6192482;23;20059;-95
2022/08/18 06:46:49;;;;;;;45.13;31.60;;;;;;;18.72;100.00;101254.81;6194108;23;20005;-96
2022/08/18 06:49:30;;;;;;;43.25;29.10;;;;;;;18.81;100.00;101251.56;6218552;23;20004;-94
2022/08/18 06:51:55;;;;;;;45.88;28.30;;;;;;;18.93;100.00;101250.34;6221837;23;20005;-95
2022/08/18 06:54:23;;;;;;;39.53;29.17;;;;;;;19.16;100.00;101258.50;6195825;23;20066;-93
2022/08/18 06:56:53;;;;;;;38.63;28.13;;;;;;;19.33;100.00;101261.13;6195353;23;20015;-96
2022/08/18 06:59:22;;;;;;;38.15;29.48;;;;;;;19.38;100.00;101250.94;6196557;23;20004;-95
2022/08/18 07:01:51;;;;;;;37.60;28.17;;;;;;;19.37;100.00;101252.06;6218515;23;20001;-94
2022/08/18 07:04:40;;;;;;;42.90;28.55;;;;;;;19.19;100.00;101256.06;6191884;23;20000;-95
2022/08/18 07:07:16;;;;;;;39.95;27.88;;;;;;;19.11;100.00;101262.03;6191697;23;20013;-95
2022/08/18 07:09:42;;;;;;;36.92;27.50;;;;;;;19.06;100.00;101254.59;6217539;23;20032;-96
2022/08/18 07:12:17;;;;;;;36.80;26.17;;;;;;;19.09;100.00;101259.56;6218019;23;20008;-96
2022/08/18 07:14:56;;;;;;;37.63;26.57;;;;;;;19.35;100.00;101259.72;6217598;23;20017;-96
2022/08/18 07:17:29;;;;;;;37.10;25.77;;;;;;;19.55;100.00;101255.47;6191265;23;20008;-96
2022/08/18 07:20:05;;;;;;;35.72;25.75;;;;;;;19.70;100.00;101258.31;6191248;23;20099;-96
2022/08/18 07:22:31;;;;;;;35.22;24.40;;;;;;;19.90;100.00;101259.53;6217550;23;20009;-96
2022/08/18 07:25:17;;;;;;;32.00;24.95;;;;;;;19.99;100.00;101255.19;6191630;23;20078;-96
2022/08/18 07:27:49;;;;;;;30.47;24.17;;;;;;;20.03;100.00;101255.47;6191345;23;20008;-96
2022/08/18 07:30:20;;;;;;;32.38;25.17;;;;;;;19.92;100.00;101260.13;6191153;23;20020;-96
2022/08/18 07:33:17;;;;;;;30.92;24.15;;;;;;;19.89;100.00;101261.47;6191565;23;20008;-96
2022/08/18 07:36:13;;;;;;;27.75;22.23;;;;;;;19.94;100.00;101258.72;6172769;23;20045;-96
2022/08/18 07:38:47;;;;;;;29.70;22.13;;;;;;;19.96;99.60;101256.56;6161786;23;20009;-96
2022/08/18 07:41:15;;;;;;;32.90;23.50;;;;;;;20.41;99.64;101256.16;6185590;23;20005;-96
2022/08/18 07:44:04;;;;;;;27.40;21.85;;;;;;;20.65;99.32;101253.72;6186736;23;20328;-96
2022/08/18 07:46:42;;;;;;;27.45;22.15;;;;;;;20.70;96.85;101259.28;6173936;23;20008;-95
2022/08/18 07:49:11;;;;;;;27.63;21.45;;;;;;;20.59;95.52;101260.31;6197112;23;20008;-96
2022/08/18 07:51:42;;;;;;;29.77;20.70;;;;;;;20.55;97.75;101261.97;6187350;23;20001;-96
2022/08/18 07:54:16;;;;;;;26.90;21.20;;;;;;;20.53;96.85;101255.91;6186325;23;20040;-96
2022/08/18 07:57:14;;;;;;;28.83;21.52;;;;;;;20.49;99.76;101258.34;6186449;23;20016;-96
2022/08/18 08:00:18;;;;;;;26.90;20.75;;;;;;;20.60;98.48;101260.03;6186397;23;20009;-94
2022/08/18 08:02:59;;;;;;;30.70;22.13;;;;;;;20.51;95.70;101261.69;6184066;23;20009;-95
2022/08/18 08:05:51;;;;;;;26.85;22.40;;;;;;;20.65;97.79;101264.72;6185476;23;20013;-95
2022/08/18 08:08:22;;;;;;;27.70;21.27;;;;;;;20.71;96.35;101254.56;6187834;23;20009;-96
2022/08/18 08:11:06;;;;;;;26.15;20.45;;;;;;;20.64;95.05;101255.66;6188379;23;20478;-95
2022/08/18 08:13:41;;;;;;;27.48;19.52;;;;;;;20.62;95.69;101265.28;6188651;23;20498;-95
2022/08/18 08:16:21;;;;;;;20.08;16.83;;;;;;;20.78;95.36;101263.41;6189217;23;20015;-95
2022/08/18 08:19:10;;;;;;;20.58;16.67;;;;;;;20.99;93.01;101261.47;6188277;23;20375;-93
2022/08/18 08:21:47;;;;;;;20.30;16.73;;;;;;;21.34;92.15;101255.13;6187841;23;20412;-78
2022/08/18 08:24:43;;;;;;;22.13;18.35;;;;;;;21.72;92.61;101263.09;6186198;23;20013;-78
2022/08/18 08:27:23;;;;;;;22.83;18.25;;;;;;;21.97;90.23;101264.94;6188266;23;20052;-79
2022/08/18 08:30:05;;;;;;;21.73;18.08;;;;;;;22.10;90.19;101274.56;6186634;23;20005;-79
2022/08/18 08:32:34;;;;;;;22.67;18.27;;;;;;;22.16;87.95;101273.44;6186506;23;20080;-79
2022/08/18 08:35:22;;;;;;;19.40;17.00;;;;;;;22.26;90.21;101267.00;6207493;23;20431;-79
2022/08/18 08:37:53;;;;;;;20.80;16.40;;;;;;;22.46;87.13;101274.41;6218493;23;20000;-80
2022/08/18 08:40:44;;;;;;;21.15;16.45;;;;;;;22.89;88.17;101269.13;6192070;23;20016;-79
2022/08/18 08:43:14;;;;;;;17.85;14.35;;;;;;;22.90;81.83;101269.97;6217393;23;20439;-79
2022/08/18 08:46:12;;;;;;;19.95;15.43;;;;;;;23.00;86.05;101278.19;6217654;23;20001;-78
2022/08/18 08:48:47;;;;;;;19.27;15.07;;;;;;;22.85;81.79;101278.28;6140848;23;20058;-79
2022/08/18 08:51:37;;;;;;;20.58;15.20;;;;;;;23.07;81.28;101284.19;6190969;23;20004;-79
2022/08/18 08:54:29;;;;;;;18.88;15.48;;;;;;;23.26;83.49;101287.09;6191016;23;20005;-79
2022/08/18 08:57:00;;;;;;;17.15;14.48;;;;;;;23.01;80.03;101282.59;6147556;23;20016;-79
2022/08/18 08:59:25;;;;;;;23.13;14.63;;;;;;;22.87;78.77;101285.19;6191925;23;20008;-79
2022/08/18 09:02:00;;;;;;;20.07;15.30;;;;;;;22.49;80.19;101270.25;6190313;23;20446;-78
2022/08/18 09:04:47;;;;;;;18.35;14.82;;;;;;;22.29;81.84;101271.16;6217146;23;20008;-82
2022/08/18 09:07:44;;;;;;;16.67;14.38;;;;;;;22.52;84.22;101269.69;6216486;23;20505;-79
2022/08/18 09:10:44;;;;;;;16.07;13.70;;;;;;;22.64;83.61;101267.38;6217277;23;20082;-78
2022/08/18 09:13:40;;;;;;;19.77;14.25;;;;;;;22.74;82.11;101277.56;6217275;23;20012;-78
2022/08/18 09:16:26;;;;;;;18.00;14.23;;;;;;;22.51;79.50;101279.06;6216300;23;20063;-78
2022/08/18 09:18:58;;;;;;;13.93;12.43;;;;;;;22.72;79.81;101280.59;6190159;23;20004;-78
2022/08/18 09:21:39;;;;;;;17.23;11.85;;;;;;;23.11;78.04;101277.00;6217125;23;20005;-79
2022/08/18 09:24:18;;;;;;;16.20;11.30;;;;;;;23.60;76.82;101266.84;6191050;23;20005;-78
2022/08/18 09:27:02;;;;;;;16.15;11.52;;;;;;;23.89;75.72;101273.50;6190012;23;20016;-79
2022/08/18 09:29:37;;;;;;;13.25;11.80;;;;;;;23.94;74.58;101273.44;6190231;23;20035;-79
2022/08/18 09:32:17;;;;;;;15.13;11.13;;;;;;;24.04;75.20;101265.00;6190532;23;20012;-80
2022/08/18 09:35:01;;;;;;;12.80;10.35;;;;;;;24.04;71.98;101262.22;6190288;23;20016;-80
2022/08/18 09:37:44;;;;;;;12.63;9.30;;;;;;;24.15;71.96;101262.91;6217834;23;20439;-80
2022/08/18 09:43:24;;;;;;;13.65;12.13;;;;;;;24.27;74.04;101266.09;6217741;23;20020;-80
2022/08/18 09:45:57;;;;;;;13.45;12.05;;;;;;;24.57;72.24;101265.94;6190195;23;20036;-80
2022/08/18 09:48:40;;;;;;;13.32;11.93;;;;;;;24.68;71.64;101261.91;6190911;23;20012;-80
2022/08/18 09:51:14;;;;;;;19.10;12.57;;;;;;;24.74;69.82;101265.44;6191527;23;20083;-80
2022/08/18 09:53:46;;;;;;;13.60;12.18;;;;;;;24.50;70.51;101258.81;6217152;23;20001;-80
2022/08/18 09:56:17;;;;;;;14.90;13.27;;;;;;;24.00;72.00;101263.94;6217000;23;20001;-80
2022/08/18 09:59:03;;;;;;;14.07;12.50;;;;;;;23.92;74.10;101262.66;6190769;23;20012;-80
2022/08/18 10:01:28;;;;;;;15.23;12.57;;;;;;;23.73;72.37;101268.09;6167305;23;20419;-80
2022/08/18 10:04:12;;;;;;;15.43;12.97;;;;;;;23.62;73.88;101272.09;6217052;23;20013;-81
2022/08/18 10:06:42;;;;;;;12.40;11.10;;;;;;;23.77;72.30;101266.41;6216575;23;20001;-81
2022/08/18 10:09:52;;;;;;;12.85;11.55;;;;;;;24.07;73.32;101255.28;6190749;23;20419;-81
2022/08/18 10:12:41;;;;;;;12.68;11.38;;;;;;;24.41;71.80;101263.38;6152339;23;20013;-81
2022/08/18 10:15:39;;;;;;;12.13;10.27;;;;;;;24.62;71.13;101250.06;6190632;23;20000;-81
2022/08/18 10:18:51;;;;;;;11.60;10.50;;;;;;;24.86;71.71;101252.75;6131260;23;20040;-81
2022/08/18 10:21:26;;;;;;;14.18;10.85;;;;;;;25.51;64.63;101251.09;6042602;23;20094;-81
2022/08/18 10:24:02;;;;;;;10.13;9.05;;;;;;;26.35;62.09;101249.13;6043666;23;20018;-81
2022/08/18 10:26:30;;;;;;;11.70;9.02;;;;;;;26.70;60.31;101248.59;6149006;23;20083;-81
2022/08/18 10:29:20;;;;;;;10.33;9.07;;;;;;;26.92;59.90;101253.34;6190452;23;20009;-81
2022/08/18 10:31:58;;;;;;;10.10;8.68;;;;;;;27.10;60.83;101237.59;6190247;23;20008;-81
2022/08/18 10:34:58;;;;;;;11.15;9.50;;;;;;;27.41;60.34;101243.19;6189851;23;20370;-81
2022/08/18 10:37:33;;;;;;;11.02;9.02;;;;;;;27.08;58.96;101239.88;6156941;23;20012;-81
2022/08/18 10:40:04;;;;;;;11.18;10.07;;;;;;;26.22;58.28;101241.59;6191019;23;20008;-81
2022/08/18 10:42:38;;;;;;;14.10;9.03;;;;;;;25.71;61.52;101240.69;6190455;23;20012;-81
2022/08/18 10:45:31;;;;;;;12.23;8.48;;;;;;;25.67;62.74;101239.66;6190081;23;20012;-82
2022/08/18 10:48:15;;;;;;;9.55;8.63;;;;;;;25.65;62.69;101239.16;6190706;23;20008;-81
2022/08/18 10:50:48;;;;;;;12.32;8.52;;;;;;;25.85;61.50;101233.19;6189708;23;20024;-82
2022/08/18 10:53:36;;;;;;;10.50;8.65;;;;;;;26.18;61.37;101238.63;6189484;23;20008;-82
2022/08/18 10:56:30;;;;;;;8.93;7.77;;;;;;;26.33;60.59;101233.88;6189224;23;20016;-84
2022/08/18 10:59:24;;;;;;;8.75;7.80;;;;;;;26.67;59.48;101250.06;6215949;23;20008;-83
2022/08/18 11:02:08;;;;;;;8.75;7.57;;;;;;;26.73;57.92;101243.22;6216081;23;20001;-81
2022/08/18 11:04:54;;;;;;;12.27;7.68;;;;;;;26.96;59.54;101243.25;6216246;23;20032;-84
2022/08/18 11:07:30;;;;;;;10.00;7.78;;;;;;;27.00;57.96;101243.41;6189997;23;20030;-81
2022/08/18 11:10:13;;;;;;;14.63;7.60;;;;;;;26.94;56.33;101246.34;6189786;23;20060;-82
2022/08/18 11:13:14;;;;;;;8.65;7.65;;;;;;;26.82;59.14;101234.13;6190179;23;19996;-83
2022/08/18 11:16:04;;;;;;;8.52;7.13;;;;;;;26.91;58.05;101237.78;6100028;23;20072;-82
2022/08/18 11:18:39;;;;;;;8.05;7.25;;;;;;;27.18;56.12;101228.47;6184982;23;20020;-82
2022/08/18 11:21:41;;;;;;;7.60;6.90;;;;;;;28.12;56.29;101221.94;6190446;23;20063;-82
2022/08/18 11:24:19;;;;;;;8.73;7.00;;;;;;;30.98;47.97;101213.84;6189232;23;20005;-84
2022/08/18 11:27:05;;;;;;;10.60;6.20;;;;;;;32.12;45.78;101210.44;6191435;23;20008;-85
2022/08/18 11:29:37;;;;;;;8.05;7.25;;;;;;;32.06;44.10;101205.41;6190542;23;20008;-85
2022/08/18 11:32:06;;;;;;;9.98;7.90;;;;;;;31.63;41.53;101205.69;6188667;23;20012;-85
2022/08/18 11:35:09;;;;;;;9.18;7.10;;;;;;;32.18;47.25;101203.44;6199082;23;20020;-85
2022/08/18 11:37:59;;;;;;;8.80;7.60;;;;;;;33.76;41.97;101192.00;6158610;23;20004;-85
2022/08/18 11:40:50;;;;;;;9.18;7.43;;;;;;;34.78;39.49;101182.53;6216215;23;20080;-85
2022/08/18 11:44:01;;;;;;;8.10;6.68;;;;;;;34.54;41.17;101175.19;6214697;23;20000;-85
2022/08/18 11:46:29;;;;;;;7.60;6.90;;;;;;;33.84;37.69;101168.47;6179118;23;20016;-85
2022/08/18 11:49:32;;;;;;;6.95;6.30;;;;;;;33.65;40.69;101177.66;6189085;23;20058;-85
2022/08/18 11:52:23;;;;;;;7.43;6.73;;;;;;;33.18;40.26;101167.25;6213517;23;20015;-85
2022/08/18 11:55:00;;;;;;;8.60;6.97;;;;;;;33.52;38.78;101162.09;6215232;23;20377;-85
2022/08/18 11:57:52;;;;;;;8.88;7.78;;;;;;;34.06;39.10;101166.97;6215595;23;20008;-84
2022/08/18 12:00:40;;;;;;;9.80;8.80;;;;;;;33.83;39.25;101158.41;6189297;23;20385;-85